Time;durP1;ratioP1;P1;durP2;ratioP2;P2;SDS_P1;SDS_P2;PMS_P1;PMS_P2;Temp;Humidity;BMP_temperature;BMP_pressure;BME280_temperature;BME280_humidity;BME280_pressure;Samples;Min_cycle;Max_cycle;Signal;HPM_P1;HPM_P2
2023/12/09 00:01:25;;;;;;;99.70;40.90;;;;;;;-3.80;79.98;99357.59;108514;1254;109960;-68
2023/12/09 00:03:52;;;;;;;93.90;39.00;;;;;;;-3.80;79.91;99356.89;108614;1254;95554;-68
2023/12/09 00:06:22;;;;;;;88.90;36.70;;;;;;;-3.79;80.07;99356.88;108645;1254;107712;-68
2023/12/09 00:08:50;;;;;;;90.60;37.70;;;;;;;-3.78;79.96;99355.48;108589;1254;94274;-69
2023/12/09 00:11:18;;;;;;;93.40;37.40;;;;;;;-3.75;80.14;99355.64;108552;1254;94236;-68
2023/12/09 00:13:46;;;;;;;89.70;37.80;;;;;;;-3.74;79.98;99359.09;108602;1254;109908;-68
2023/12/09 00:16:14;;;;;;;91.60;38.30;;;;;;;-3.73;79.98;99357.17;108486;1254;97370;-68
2023/12/09 00:18:42;;;;;;;89.70;37.00;;;;;;;-3.73;79.88;99356.66;108604;1254;106951;-68
2023/12/09 00:21:10;;;;;;;91.80;38.80;;;;;;;-3.71;80.05;99355.78;108572;1254;94641;-69
2023/12/09 00:23:38;;;;;;;89.10;38.00;;;;;;;-3.70;80.02;99356.97;108629;1254;94267;-68
2023/12/09 00:26:15;;;;;;;88.80;38.00;;;;;;;-3.68;79.90;99357.48;108607;1254;109897;-68
2023/12/09 00:28:43;;;;;;;88.00;38.10;;;;;;;-3.67;80.08;99355.89;108614;1254;95746;-68
2023/12/09 00:31:11;;;;;;;91.10;38.90;;;;;;;-3.69;79.94;99355.05;108425;1256;107741;-68
2023/12/09 00:33:39;;;;;;;90.50;37.20;;;;;;;-3.70;79.75;99354.20;108528;1254;94405;-68
2023/12/09 00:36:07;;;;;;;82.60;37.00;;;;;;;-3.71;79.80;99356.29;108556;1254;94621;-68
2023/12/09 00:38:35;;;;;;;82.60;35.20;;;;;;;-3.69;79.89;99359.92;108564;1254;109913;-68
2023/12/09 00:41:04;;;;;;;78.90;33.40;;;;;;;-3.69;79.86;99357.14;108646;1254;95488;-68
2023/12/09 00:43:32;;;;;;;80.90;35.70;;;;;;;-3.69;79.76;99357.32;108541;1254;107296;-68
2023/12/09 00:46:00;;;;;;;84.20;35.50;;;;;;;-3.70;79.85;99356.45;108642;1254;94331;-68
2023/12/09 00:48:28;;;;;;;76.40;33.60;;;;;;;-3.69;79.95;99356.11;108568;1256;94340;-68
2023/12/09 00:50:55;;;;;;;73.80;31.60;;;;;;;-3.66;79.87;99358.31;108610;1254;109757;-68
2023/12/09 00:53:23;;;;;;;74.10;30.70;;;;;;;-3.63;80.00;99358.80;108682;1254;95328;-67
2023/12/09 00:55:51;;;;;;;73.30;32.50;;;;;;;-3.61;80.09;99361.02;108608;1254;107643;-68
2023/12/09 00:58:19;;;;;;;74.80;31.40;;;;;;;-3.58;79.98;99365.16;108614;1254;94208;-68
2023/12/09 01:00:47;;;;;;;57.10;26.90;;;;;;;-3.55;79.98;99361.85;108624;1255;94331;-68
2023/12/09 01:03:15;;;;;;;55.80;24.40;;;;;;;-3.51;80.03;99355.05;108714;1254;109860;-68
2023/12/09 01:05:43;;;;;;;63.90;29.30;;;;;;;-3.46;80.21;99345.29;108604;1254;95600;-68
2023/12/09 01:08:11;;;;;;;66.90;30.60;;;;;;;-3.46;80.15;99347.02;108616;1254;107668;-68
2023/12/09 01:10:39;;;;;;;68.20;29.40;;;;;;;-3.50;79.82;99349.66;108474;1254;94598;-68
2023/12/09 01:13:06;;;;;;;67.00;28.30;;;;;;;-3.54;79.66;99350.40;108642;1254;94332;-68
2023/12/09 01:15:34;;;;;;;60.40;26.00;;;;;;;-3.54;79.81;99351.45;108753;1254;109896;-68
2023/12/09 01:18:02;;;;;;;59.30;24.60;;;;;;;-3.51;79.96;99344.98;108637;1254;95647;-68
2023/12/09 01:20:30;;;;;;;57.90;24.30;;;;;;;-3.47;80.04;99345.11;108674;1254;106770;-68
2023/12/09 01:22:58;;;;;;;67.10;29.00;;;;;;;-3.47;79.79;99340.96;108646;1253;94685;-69
2023/12/09 01:25:25;;;;;;;57.50;27.70;;;;;;;-3.49;79.79;99338.20;108722;1253;94296;-69
2023/12/09 01:27:53;;;;;;;63.80;28.20;;;;;;;-3.53;79.76;99338.94;108639;1254;109347;-68
2023/12/09 01:30:21;;;;;;;61.80;26.00;;;;;;;-3.58;79.73;99332.75;108718;1253;95139;-68
2023/12/09 01:32:49;;;;;;;66.90;28.90;;;;;;;-3.65;79.55;99332.65;108694;1253;107063;-67
2023/12/09 01:35:17;;;;;;;63.00;28.80;;;;;;;-3.74;79.37;99332.41;108567;1254;94327;-68
2023/12/09 01:37:45;;;;;;;64.40;26.50;;;;;;;-3.81;79.62;99331.95;108780;1253;94275;-69
2023/12/09 01:40:16;;;;;;;64.10;28.30;;;;;;;-3.83;79.76;99327.29;108754;1253;109861;-68
2023/12/09 01:42:44;;;;;;;61.00;27.00;;;;;;;-3.88;79.37;99328.03;108677;1253;94408;-68
2023/12/09 01:45:12;;;;;;;62.80;26.90;;;;;;;-3.96;79.48;99327.23;108679;1254;107642;-68
2023/12/09 01:47:39;;;;;;;65.00;29.10;;;;;;;-4.06;79.21;99326.63;108748;1253;94660;-68
2023/12/09 01:50:08;;;;;;;63.60;28.90;;;;;;;-4.10;79.33;99332.23;108701;1253;94248;-68
2023/12/09 01:52:36;;;;;;;60.80;27.90;;;;;;;-4.13;79.35;99335.35;108543;1254;109976;-69
2023/12/09 01:55:04;;;;;;;66.00;27.50;;;;;;;-4.17;79.51;99330.20;108654;1254;95796;-68
2023/12/09 01:57:33;;;;;;;59.80;26.00;;;;;;;-4.20;79.34;99335.58;108582;1254;107668;-68
2023/12/09 02:00:03;;;;;;;67.00;27.20;;;;;;;-4.22;79.45;99334.40;108642;1254;94693;-68
2023/12/09 02:02:31;;;;;;;62.20;24.90;;;;;;;-4.24;79.34;99328.35;108631;1254;94360;-68
2023/12/09 02:05:01;;;;;;;58.00;26.50;;;;;;;-4.26;79.67;99322.30;108688;1253;110561;-68
2023/12/09 02:07:28;;;;;;;58.30;27.80;;;;;;;-4.26;79.34;99322.48;108693;1254;94593;-68
2023/12/09 02:09:56;;;;;;;61.20;23.70;;;;;;;-4.29;79.35;99320.77;108662;1254;106691;-68
2023/12/09 02:12:37;;;;;;;66.90;27.10;;;;;;;-4.31;79.59;99322.52;108649;1254;94300;-68
2023/12/09 02:15:14;;;;;;;57.80;24.50;;;;;;;-4.32;79.40;99329.98;108620;1254;94492;-68
2023/12/09 02:17:53;;;;;;;61.20;25.80;;;;;;;-4.37;79.50;99328.98;108668;1254;109547;-68
2023/12/09 02:20:21;;;;;;;61.40;26.50;;;;;;;-4.43;79.34;99328.49;108604;1254;95545;-68
2023/12/09 02:22:48;;;;;;;60.60;25.70;;;;;;;-4.49;79.14;99324.90;108631;1253;107309;-68
2023/12/09 02:25:16;;;;;;;59.10;25.20;;;;;;;-4.54;79.05;99321.66;108716;1253;94494;-68
2023/12/09 02:27:54;;;;;;;64.60;25.50;;;;;;;-4.59;78.97;99321.34;108663;1254;94353;-68
2023/12/09 02:30:46;;;;;;;61.20;25.70;;;;;;;-4.66;78.98;99324.67;108733;1254;109719;-68
2023/12/09 02:33:15;;;;;;;63.60;26.50;;;;;;;-4.68;79.39;99320.88;108592;1254;95230;-68
2023/12/09 02:35:46;;;;;;;61.50;24.40;;;;;;;-4.68;79.43;99321.40;108676;1253;105494;-68
2023/12/09 02:38:16;;;;;;;64.70;25.80;;;;;;;-4.68;79.45;99323.13;108614;1254;94311;-68
2023/12/09 02:40:45;;;;;;;61.90;24.70;;;;;;;-4.66;79.76;99322.25;108550;1254;94287;-68
2023/12/09 02:43:14;;;;;;;65.80;26.40;;;;;;;-4.66;79.44;99322.42;108720;1253;109873;-68
2023/12/09 02:45:44;;;;;;;66.30;26.50;;;;;;;-4.66;79.65;99320.34;108579;1254;95543;-68
2023/12/09 02:48:12;;;;;;;72.30;30.30;;;;;;;-4.67;79.70;99319.14;108698;1253;107346;-68
2023/12/09 02:50:40;;;;;;;62.70;25.20;;;;;;;-4.67;79.53;99320.02;108639;1253;94564;-69
2023/12/09 02:53:08;;;;;;;67.00;28.60;;;;;;;-4.65;79.80;99320.35;108672;1253;94263;-68
2023/12/09 02:55:36;;;;;;;68.80;27.60;;;;;;;-4.65;79.73;99325.52;108694;1253;109928;-68
2023/12/09 02:58:03;;;;;;;75.50;30.70;;;;;;;-4.66;79.60;99327.27;108700;1253;95461;-68
2023/12/09 03:00:31;;;;;;;66.70;26.50;;;;;;;-4.65;79.66;99327.44;108617;1254;107596;-69
2023/12/09 03:02:59;;;;;;;68.20;25.40;;;;;;;-4.63;79.84;99329.67;108658;1253;94470;-68
2023/12/09 03:05:27;;;;;;;67.00;28.00;;;;;;;-4.60;79.62;99327.41;108703;1253;94547;-68
2023/12/09 03:07:55;;;;;;;66.10;27.70;;;;;;;-4.63;79.46;99328.64;108723;1253;108923;-68
2023/12/09 03:10:22;;;;;;;59.10;24.60;;;;;;;-4.66;79.53;99323.46;108708;1253;95163;-68
2023/12/09 03:12:50;;;;;;;66.40;29.10;;;;;;;-4.59;79.67;99330.01;108703;1253;107616;-68
2023/12/09 03:15:18;;;;;;;64.90;26.70;;;;;;;-4.54;79.48;99329.80;108638;1254;94610;-69
2023/12/09 03:17:46;;;;;;;63.70;26.00;;;;;;;-4.54;79.68;99329.96;108682;1253;94328;-68
2023/12/09 03:20:14;;;;;;;66.60;26.40;;;;;;;-4.53;79.69;99332.89;108555;1254;109642;-68
2023/12/09 03:22:42;;;;;;;67.00;27.90;;;;;;;-4.50;79.49;99327.86;108697;1253;95449;-68
2023/12/09 03:25:10;;;;;;;62.20;24.10;;;;;;;-4.52;79.44;99331.34;108698;1254;107621;-68
2023/12/09 03:27:38;;;;;;;70.00;27.80;;;;;;;-4.52;79.54;99329.77;108639;1254;94668;-68
2023/12/09 03:30:06;;;;;;;65.60;27.80;;;;;;;-4.51;79.47;99326.83;108699;1253;94200;-68
2023/12/09 03:32:34;;;;;;;68.90;27.10;;;;;;;-4.53;79.34;99325.10;108625;1254;109920;-68
2023/12/09 03:35:02;;;;;;;63.80;29.40;;;;;;;-4.51;79.45;99328.20;108705;1254;95106;-69
2023/12/09 03:37:30;;;;;;;64.00;25.60;;;;;;;-4.49;79.40;99332.01;108661;1254;107647;-68
2023/12/09 03:39:58;;;;;;;59.00;25.20;;;;;;;-4.48;79.49;99324.20;108657;1254;94255;-71
2023/12/09 03:42:25;;;;;;;62.70;26.10;;;;;;;-4.44;79.38;99326.94;108754;1253;94636;-68
2023/12/09 03:44:53;;;;;;;64.70;27.90;;;;;;;-4.41;79.57;99326.58;108637;1254;109359;-68
2023/12/09 03:47:21;;;;;;;63.80;24.80;;;;;;;-4.38;79.70;99329.15;108788;1253;95161;-69
2023/12/09 03:49:56;;;;;;;66.40;27.30;;;;;;;-4.38;79.44;99331.92;108694;1254;108215;-68
2023/12/09 03:52:24;;;;;;;63.40;26.90;;;;;;;-4.43;79.11;99329.00;108682;1253;94341;-68
2023/12/09 03:54:52;;;;;;;67.30;28.80;;;;;;;-4.48;79.00;99332.86;108739;1253;94718;-69
2023/12/09 03:57:20;;;;;;;60.80;26.70;;;;;;;-4.49;79.21;99334.95;108664;1254;109943;-67
2023/12/09 03:59:48;;;;;;;62.00;25.70;;;;;;;-4.52;79.10;99340.16;108746;1253;94323;-68
2023/12/09 04:02:17;;;;;;;62.70;27.00;;;;;;;-4.52;79.10;99342.23;108592;1254;107622;-67
2023/12/09 04:04:45;;;;;;;61.10;27.20;;;;;;;-4.52;79.43;99337.58;108553;1254;94700;-68
2023/12/09 04:07:12;;;;;;;65.30;28.60;;;;;;;-4.51;79.15;99339.30;108715;1254;94213;-69
2023/12/09 04:09:41;;;;;;;63.90;27.20;;;;;;;-4.51;79.20;99339.81;108777;1253;109885;-68
2023/12/09 04:12:09;;;;;;;66.10;27.70;;;;;;;-4.49;79.53;99339.63;108714;1253;95512;-68
2023/12/09 04:14:36;;;;;;;69.30;26.70;;;;;;;-4.43;79.61;99345.80;108701;1253;107533;-68
2023/12/09 04:17:04;;;;;;;66.60;27.10;;;;;;;-4.39;79.76;99346.48;108702;1253;94236;-68
2023/12/09 04:19:32;;;;;;;69.10;27.60;;;;;;;-4.30;79.60;99347.27;108756;1253;94654;-68
2023/12/09 04:22:00;;;;;;;66.30;26.20;;;;;;;-4.25;79.70;99346.52;108695;1253;109936;-68
2023/12/09 04:24:28;;;;;;;68.40;27.80;;;;;;;-4.22;79.59;99349.98;108667;1253;95141;-68
2023/12/09 04:26:56;;;;;;;69.80;27.30;;;;;;;-4.17;79.75;99355.48;108630;1253;107075;-69
2023/12/09 04:29:23;;;;;;;65.20;25.70;;;;;;;-4.13;79.77;99355.80;108618;1254;94286;-68
2023/12/09 04:31:51;;;;;;;73.70;30.60;;;;;;;-4.13;79.62;99353.38;108694;1254;94568;-68
2023/12/09 04:34:19;;;;;;;67.30;26.80;;;;;;;-4.13;79.67;99355.63;108674;1254;109854;-69
2023/12/09 04:36:47;;;;;;;63.20;24.80;;;;;;;-4.14;79.42;99348.38;108639;1254;94722;-68
2023/12/09 04:39:14;;;;;;;61.00;26.20;;;;;;;-4.13;79.60;99351.30;108597;1254;108151;-68
2023/12/09 04:41:42;;;;;;;61.70;26.20;;;;;;;-4.10;79.66;99350.23;108696;1253;95448;-69
2023/12/09 04:44:10;;;;;;;68.40;25.90;;;;;;;-4.09;79.54;99353.18;108749;1253;94319;-68
2023/12/09 04:46:38;;;;;;;69.10;26.90;;;;;;;-4.08;79.54;99349.52;108732;1253;109994;-69
2023/12/09 04:49:06;;;;;;;67.00;25.40;;;;;;;-4.08;79.45;99343.12;108653;1254;95256;-68
2023/12/09 04:51:34;;;;;;;59.40;24.40;;;;;;;-4.06;79.72;99342.56;108686;1253;108575;-68
2023/12/09 04:54:02;;;;;;;68.40;26.60;;;;;;;-4.03;79.51;99341.16;108700;1254;94533;-69
2023/12/09 04:56:30;;;;;;;70.60;27.90;;;;;;;-4.03;79.68;99340.45;108720;1253;94341;-68
2023/12/09 04:58:58;;;;;;;63.80;25.80;;;;;;;-4.02;79.35;99340.29;108814;1253;109126;-69
2023/12/09 05:01:26;;;;;;;69.70;27.10;;;;;;;-4.01;79.57;99334.90;108667;1254;95475;-69
2023/12/09 05:03:54;;;;;;;68.30;25.70;;;;;;;-4.01;79.56;99339.06;108691;1253;107587;-68
2023/12/09 05:06:22;;;;;;;60.80;23.10;;;;;;;-4.01;79.40;99335.59;108670;1256;94240;-69
2023/12/09 05:08:50;;;;;;;70.50;25.60;;;;;;;-3.95;79.66;99335.02;108629;1254;94677;-68
2023/12/09 05:11:18;;;;;;;72.40;29.10;;;;;;;-3.95;79.56;99334.85;108727;1253;109833;-68
2023/12/09 05:13:46;;;;;;;63.70;25.20;;;;;;;-3.95;79.53;99333.64;108681;1253;95552;-68
2023/12/09 05:16:14;;;;;;;68.80;28.20;;;;;;;-3.93;79.61;99332.59;108741;1253;107382;-68
2023/12/09 05:18:42;;;;;;;68.70;25.90;;;;;;;-3.91;79.73;99328.76;108711;1253;94824;-68
2023/12/09 05:21:12;;;;;;;71.40;27.70;;;;;;;-3.89;79.70;99332.03;108562;1254;94352;-68
2023/12/09 05:23:40;;;;;;;60.40;25.70;;;;;;;-3.88;79.71;99333.58;108633;1256;111164;-68
2023/12/09 05:26:08;;;;;;;62.40;23.70;;;;;;;-3.87;79.57;99338.23;108673;1253;94642;-68
2023/12/09 05:28:36;;;;;;;73.40;30.30;;;;;;;-3.86;79.59;99343.61;108677;1253;108385;-68
2023/12/09 05:31:04;;;;;;;70.70;26.10;;;;;;;-3.88;79.57;99349.16;108659;1253;94486;-68
2023/12/09 05:33:32;;;;;;;66.80;25.40;;;;;;;-3.91;79.50;99346.44;108739;1253;94325;-67
2023/12/09 05:36:00;;;;;;;66.20;26.60;;;;;;;-3.96;79.29;99343.36;108688;1253;108806;-68
2023/12/09 05:38:27;;;;;;;63.80;25.20;;;;;;;-4.00;79.39;99340.79;108707;1253;95483;-69
2023/12/09 05:40:55;;;;;;;63.60;24.90;;;;;;;-4.06;79.15;99342.57;108687;1253;107627;-68
2023/12/09 05:43:23;;;;;;;62.60;23.60;;;;;;;-4.09;79.37;99350.40;108628;1254;94591;-68
2023/12/09 05:45:51;;;;;;;69.00;28.90;;;;;;;-4.12;79.17;99350.59;108680;1253;94489;-68
2023/12/09 05:48:19;;;;;;;68.50;26.80;;;;;;;-4.14;79.23;99353.04;108657;1254;109958;-68
2023/12/09 05:50:48;;;;;;;68.60;26.40;;;;;;;-4.18;79.30;99355.84;108743;1253;94525;-69
2023/12/09 05:53:15;;;;;;;64.50;24.60;;;;;;;-4.17;79.50;99359.48;108654;1253;107615;-68
2023/12/09 05:55:43;;;;;;;68.80;26.50;;;;;;;-4.15;79.54;99356.16;108692;1254;94669;-68
2023/12/09 05:58:13;;;;;;;72.50;28.40;;;;;;;-4.20;79.08;99360.70;108684;1253;94713;-68
2023/12/09 06:00:41;;;;;;;67.10;26.80;;;;;;;-4.20;79.29;99362.95;108685;1254;109404;-68
2023/12/09 06:03:09;;;;;;;62.60;26.90;;;;;;;-4.21;79.23;99368.15;108514;1254;95708;-68
2023/12/09 06:05:37;;;;;;;69.90;27.90;;;;;;;-4.20;79.48;99371.09;108640;1253;107256;-68
2023/12/09 06:08:05;;;;;;;69.50;26.20;;;;;;;-4.20;79.45;99366.77;108629;1253;94589;-68
2023/12/09 06:10:32;;;;;;;73.40;28.40;;;;;;;-4.20;79.56;99368.14;108674;1253;95978;-68
2023/12/09 06:13:00;;;;;;;76.20;29.80;;;;;;;-4.17;79.58;99370.39;108654;1253;110033;-68
2023/12/09 06:15:28;;;;;;;75.80;32.00;;;;;;;-4.20;79.38;99369.19;108781;1253;95627;-68
2023/12/09 06:17:56;;;;;;;77.00;30.50;;;;;;;-4.24;79.46;99369.21;108701;1253;106672;-68
2023/12/09 06:20:23;;;;;;;76.40;30.90;;;;;;;-4.23;79.62;99372.14;108696;1253;94272;-69
2023/12/09 06:22:51;;;;;;;69.90;29.30;;;;;;;-4.23;79.35;99373.88;108686;1254;94714;-68
2023/12/09 06:25:19;;;;;;;73.90;28.60;;;;;;;-4.26;79.17;99375.80;108715;1253;109479;-69
2023/12/09 06:27:47;;;;;;;78.00;31.50;;;;;;;-4.33;79.22;99380.73;108645;1253;95454;-68
2023/12/09 06:30:15;;;;;;;78.60;32.10;;;;;;;-4.34;79.44;99376.91;108650;1253;106070;-69
2023/12/09 06:32:43;;;;;;;76.00;30.10;;;;;;;-4.34;79.47;99373.45;108657;1253;94561;-70
2023/12/09 06:35:11;;;;;;;74.60;32.20;;;;;;;-4.36;79.37;99375.72;108677;1253;94672;-69
2023/12/09 06:37:39;;;;;;;75.60;31.00;;;;;;;-4.36;79.46;99374.16;108663;1253;107727;-69
2023/12/09 06:40:07;;;;;;;73.10;30.20;;;;;;;-4.39;79.32;99373.13;108683;1253;94832;-69
2023/12/09 06:42:37;;;;;;;75.90;30.30;;;;;;;-4.42;79.32;99372.97;108688;1253;107755;-69
2023/12/09 06:45:07;;;;;;;74.10;33.60;;;;;;;-4.48;79.05;99375.79;108671;1254;94497;-73
2023/12/09 06:47:35;;;;;;;77.70;31.80;;;;;;;-4.52;78.96;99371.49;108596;1254;94337;-73
2023/12/09 06:50:06;;;;;;;75.90;32.50;;;;;;;-4.54;78.89;99369.94;108373;1253;111104;-71
2023/12/09 06:52:35;;;;;;;68.10;28.10;;;;;;;-4.58;78.73;99369.64;108676;1253;95355;-74
2023/12/09 06:55:03;;;;;;;76.70;28.60;;;;;;;-4.65;78.83;99371.73;108617;1253;107070;-73
2023/12/09 06:57:31;;;;;;;73.00;28.60;;;;;;;-4.70;78.92;99367.96;108667;1254;94681;-72
2023/12/09 06:59:59;;;;;;;70.00;27.90;;;;;;;-4.71;78.83;99367.28;108699;1253;94370;-69
2023/12/09 07:02:27;;;;;;;69.80;27.40;;;;;;;-4.64;79.27;99364.64;108690;1254;111214;-74
2023/12/09 07:05:13;;;;;;;70.30;28.40;;;;;;;-4.58;79.25;99360.10;108645;1254;95770;-73
2023/12/09 07:07:41;;;;;;;75.20;28.00;;;;;;;-4.52;79.29;99360.42;108656;1253;107592;-73
2023/12/09 07:10:09;;;;;;;63.70;28.30;;;;;;;-4.48;79.33;99358.14;108615;1253;94362;-73
2023/12/09 07:12:37;;;;;;;65.40;27.00;;;;;;;-4.41;79.47;99359.81;108679;1253;94776;-73
2023/12/09 07:15:05;;;;;;;72.70;27.40;;;;;;;-4.34;79.53;99360.28;108681;1253;109485;-73
2023/12/09 07:17:33;;;;;;;66.10;25.40;;;;;;;-4.25;79.46;99362.64;108681;1253;95330;-76
2023/12/09 07:20:05;;;;;;;67.60;27.80;;;;;;;-4.17;79.61;99362.41;108644;1254;107328;-75
2023/12/09 07:22:39;;;;;;;69.40;27.90;;;;;;;-4.15;79.34;99361.02;108741;1253;94254;-80
2023/12/09 07:25:10;;;;;;;69.70;28.10;;;;;;;-4.16;79.01;99356.86;108412;1254;94252;-78
2023/12/09 07:27:38;;;;;;;73.10;29.30;;;;;;;-4.15;79.16;99357.04;108627;1253;112415;-80
2023/12/09 07:30:17;;;;;;;65.70;29.20;;;;;;;-4.10;79.37;99352.30;108433;1254;95023;-80
2023/12/09 07:32:47;;;;;;;66.70;27.50;;;;;;;-4.00;79.39;99353.08;108363;1254;107677;-77
2023/12/09 07:35:20;;;;;;;73.10;29.50;;;;;;;-3.92;79.56;99352.15;108379;1254;94576;-80
2023/12/09 07:37:58;;;;;;;71.00;29.70;;;;;;;-3.82;79.76;99346.17;108392;1254;94467;-74
2023/12/09 07:40:32;;;;;;;66.40;30.60;;;;;;;-3.72;79.76;99348.50;108739;1253;109518;-74
2023/12/09 07:43:02;;;;;;;78.60;31.90;;;;;;;-3.64;79.81;99348.23;108674;1253;95557;-75
2023/12/09 07:45:35;;;;;;;76.40;30.80;;;;;;;-3.63;79.35;99343.89;108686;1253;107671;-78
2023/12/09 07:48:04;;;;;;;71.70;30.80;;;;;;;-3.68;79.29;99345.86;108703;1253;94246;-77
2023/12/09 07:50:42;;;;;;;78.80;34.70;;;;;;;-3.68;79.45;99347.25;108646;1254;94398;-80
2023/12/09 07:53:13;;;;;;;66.00;28.60;;;;;;;-3.59;79.59;99340.90;108531;1254;108553;-79
2023/12/09 07:55:51;;;;;;;70.10;32.60;;;;;;;-3.61;79.15;99339.02;108528;1253;94297;-77
2023/12/09 07:58:18;;;;;;;72.30;33.40;;;;;;;-3.55;79.76;99339.83;108739;1253;107371;-76
2023/12/09 08:00:47;;;;;;;75.80;32.90;;;;;;;-3.45;79.66;99338.50;108679;1254;94225;-76
2023/12/09 08:03:19;;;;;;;72.60;32.90;;;;;;;-3.34;79.86;99334.23;108697;1254;94304;-74
2023/12/09 08:05:50;;;;;;;75.70;31.30;;;;;;;-3.24;80.11;99337.05;108729;1253;109836;-71
2023/12/09 08:08:18;;;;;;;75.60;33.30;;;;;;;-3.16;80.02;99332.09;108754;1253;95056;-72
2023/12/09 08:10:46;;;;;;;74.40;31.80;;;;;;;-3.09;79.88;99331.50;108690;1253;107340;-74
2023/12/09 08:13:13;;;;;;;83.20;35.60;;;;;;;-3.06;79.80;99328.67;108702;1254;94301;-74
2023/12/09 08:15:41;;;;;;;85.30;36.30;;;;;;;-3.08;79.71;99326.96;108725;1254;94300;-76
2023/12/09 08:18:09;;;;;;;79.10;36.10;;;;;;;-3.08;79.60;99326.63;108754;1253;109684;-77
2023/12/09 08:20:37;;;;;;;90.80;40.10;;;;;;;-3.05;79.75;99328.13;108832;1254;95312;-79
2023/12/09 08:23:05;;;;;;;89.40;42.50;;;;;;;-3.02;79.92;99323.59;108723;1254;106786;-83
2023/12/09 08:25:36;;;;;;;96.80;43.10;;;;;;;-2.96;80.09;99325.77;108791;1254;94199;-82
2023/12/09 08:28:09;;;;;;;82.10;37.10;;;;;;;-2.91;79.95;99326.39;108798;1253;94273;-73
2023/12/09 08:30:39;;;;;;;82.40;40.40;;;;;;;-2.88;79.89;99327.05;108740;1253;108635;-75
2023/12/09 08:33:09;;;;;;;86.80;41.30;;;;;;;-2.86;79.80;99327.18;108771;1253;95170;-81
2023/12/09 08:35:44;;;;;;;95.70;43.00;;;;;;;-2.81;79.85;99331.11;108657;1254;108210;-73
2023/12/09 08:38:12;;;;;;;90.10;42.00;;;;;;;-2.79;79.92;99334.90;108614;1254;94495;-71
2023/12/09 08:40:39;;;;;;;90.50;43.20;;;;;;;-2.78;79.78;99327.95;108769;1253;94502;-74
2023/12/09 08:43:07;;;;;;;87.20;43.10;;;;;;;-2.78;79.69;99327.59;108699;1254;109988;-75
2023/12/09 08:45:36;;;;;;;88.00;40.40;;;;;;;-2.76;79.60;99335.73;108767;1254;94305;-72
2023/12/09 08:48:04;;;;;;;86.70;38.00;;;;;;;-2.82;79.45;99335.12;108736;1254;107601;-76
2023/12/09 08:50:36;;;;;;;83.70;40.70;;;;;;;-2.81;79.68;99335.46;108702;1254;94303;-71
2023/12/09 08:53:04;;;;;;;87.30;40.90;;;;;;;-2.75;79.80;99335.20;108758;1253;94403;-74
2023/12/09 08:55:32;;;;;;;92.70;44.40;;;;;;;-2.71;79.87;99331.33;108591;1254;108393;-75
2023/12/09 08:58:00;;;;;;;94.70;43.30;;;;;;;-2.66;79.96;99327.79;108797;1254;95213;-74
2023/12/09 09:00:48;;;;;;;90.60;41.00;;;;;;;-2.63;79.91;99325.31;108716;1254;106526;-78
2023/12/09 09:03:20;;;;;;;90.10;42.90;;;;;;;-2.54;80.10;99322.40;108720;1254;94287;-77
2023/12/09 09:05:48;;;;;;;88.40;43.10;;;;;;;-2.45;80.36;99320.35;108870;1254;94311;-79
2023/12/09 09:08:16;;;;;;;86.00;41.90;;;;;;;-2.38;80.22;99318.66;108834;1254;108558;-79
2023/12/09 09:10:49;;;;;;;88.90;42.20;;;;;;;-2.33;80.22;99318.09;108825;1254;94519;-72
2023/12/09 09:13:17;;;;;;;87.20;44.10;;;;;;;-2.32;80.15;99313.02;108683;1254;108332;-72
2023/12/09 09:15:45;;;;;;;96.90;46.30;;;;;;;-2.29;79.86;99311.58;108741;1254;94244;-75
2023/12/09 09:18:13;;;;;;;88.60;43.70;;;;;;;-2.24;79.91;99302.99;108728;1253;94665;-76
2023/12/09 09:20:45;;;;;;;80.90;38.00;;;;;;;-2.17;80.13;99301.48;108776;1254;109889;-75
2023/12/09 09:23:13;;;;;;;79.70;38.80;;;;;;;-2.09;80.26;99296.50;108767;1253;94311;-75
2023/12/09 09:25:42;;;;;;;58.70;31.00;;;;;;;-2.01;80.35;99293.05;108779;1254;107573;-76
2023/12/09 09:28:13;;;;;;;49.80;25.20;;;;;;;-1.88;80.62;99286.90;108681;1254;94605;-72
2023/12/09 09:30:40;;;;;;;51.90;24.90;;;;;;;-1.69;80.76;99286.73;108751;1253;94491;-72
2023/12/09 09:33:09;;;;;;;51.30;27.60;;;;;;;-1.51;80.69;99282.72;108728;1253;110004;-71
2023/12/09 09:35:37;;;;;;;59.30;31.30;;;;;;;-1.35;80.93;99278.39;108724;1253;95746;-72
2023/12/09 09:38:05;;;;;;;57.40;30.30;;;;;;;-1.22;80.64;99277.08;108683;1254;107294;-74
2023/12/09 09:40:32;;;;;;;54.20;30.50;;;;;;;-1.10;80.58;99274.74;108634;1253;94319;-76
2023/12/09 09:43:06;;;;;;;52.40;29.10;;;;;;;-0.97;80.54;99269.77;108706;1254;94240;-72
2023/12/09 09:45:35;;;;;;;54.70;27.50;;;;;;;-0.81;80.82;99271.84;108702;1254;109420;-72
2023/12/09 09:48:04;;;;;;;47.60;24.70;;;;;;;-0.68;80.60;99271.37;108770;1254;95196;-71
2023/12/09 09:50:40;;;;;;;74.90;40.30;;;;;;;-0.53;80.84;99271.89;108674;1253;107838;-73
2023/12/09 09:53:10;;;;;;;;;;;;;;;-0.38;80.91;99261.09;108628;1254;94508;-73
2023/12/09 09:55:41;;;;;;;50.70;26.20;;;;;;;-0.29;80.77;99263.98;108667;1255;94359;-71
2023/12/09 09:58:08;;;;;;;53.10;27.50;;;;;;;-0.21;80.57;99261.54;108636;1253;109652;-70
2023/12/09 10:00:36;;;;;;;53.30;27.60;;;;;;;-0.13;81.01;99259.92;108627;1256;94441;-71
2023/12/09 10:03:04;;;;;;;44.50;22.90;;;;;;;-0.04;80.75;99259.19;108583;1254;107234;-71
2023/12/09 10:05:32;;;;;;;38.30;19.40;;;;;;;0.05;80.81;99253.70;108580;1255;94233;-72
2023/12/09 10:08:00;;;;;;;36.20;19.40;;;;;;;0.15;80.75;99258.51;108720;1254;94497;-71
2023/12/09 10:10:29;;;;;;;35.00;18.60;;;;;;;0.24;80.88;99257.56;108684;1254;109882;-73
2023/12/09 10:12:58;;;;;;;36.00;18.70;;;;;;;0.33;80.95;99255.21;108631;1254;94344;-73
2023/12/09 10:15:26;;;;;;;38.80;19.20;;;;;;;0.43;80.95;99250.57;108741;1253;108421;-73
2023/12/09 10:18:00;;;;;;;37.50;18.30;;;;;;;0.53;80.98;99250.13;108757;1254;95247;-73
2023/12/09 10:20:29;;;;;;;31.60;16.10;;;;;;;0.63;80.79;99247.04;108655;1253;94360;-74
2023/12/09 10:23:00;;;;;;;32.00;16.00;;;;;;;0.74;81.04;99250.58;108762;1254;109429;-74
2023/12/09 10:25:28;;;;;;;31.80;15.90;;;;;;;0.84;80.98;99244.67;108677;1254;95697;-74
2023/12/09 10:27:57;;;;;;;33.70;15.80;;;;;;;0.94;80.83;99246.48;108692;1253;107095;-73
2023/12/09 10:30:25;;;;;;;32.50;16.70;;;;;;;1.04;81.21;99245.33;108760;1254;94244;-73
2023/12/09 10:32:53;;;;;;;33.50;16.80;;;;;;;1.13;81.07;99242.08;108750;1254;94248;-73
2023/12/09 10:35:21;;;;;;;35.10;16.90;;;;;;;1.20;80.73;99231.90;108787;1253;109935;-73
2023/12/09 10:37:51;;;;;;;38.70;18.60;;;;;;;1.26;80.53;99229.61;108733;1254;94383;-72
2023/12/09 10:40:19;;;;;;;31.70;15.40;;;;;;;1.29;80.40;99229.33;108702;1254;107677;-72
2023/12/09 10:42:51;;;;;;;33.90;17.30;;;;;;;1.35;80.65;99230.73;108746;1254;94317;-72
2023/12/09 10:45:19;;;;;;;38.30;18.70;;;;;;;1.40;80.61;99228.46;108788;1254;94272;-74
2023/12/09 10:47:47;;;;;;;38.10;18.30;;;;;;;1.43;80.68;99227.84;108774;1253;108656;-73
2023/12/09 10:50:15;;;;;;;38.70;19.00;;;;;;;1.46;80.76;99227.55;108724;1254;95167;-74
2023/12/09 10:52:43;;;;;;;35.80;16.80;;;;;;;1.48;80.48;99224.15;108675;1254;106936;-72
2023/12/09 10:55:10;;;;;;;44.60;20.70;;;;;;;1.48;80.42;99222.96;108643;1254;94259;-73
2023/12/09 10:57:39;;;;;;;45.70;19.70;;;;;;;1.50;80.55;99218.52;108782;1253;94479;-73
2023/12/09 11:00:14;;;;;;;34.70;17.00;;;;;;;1.52;80.27;99214.97;108714;1254;109510;-71
2023/12/09 11:03:35;;;;;;;39.00;18.90;;;;;;;1.53;80.02;99218.42;102079;1297;635803;-72
2023/12/09 11:06:06;;;;;;;41.40;20.30;;;;;;;1.49;79.89;99217.52;104849;1268;94281;-72
2023/12/09 11:08:36;;;;;;;49.30;23.40;;;;;;;1.49;80.23;99219.06;104786;1269;94262;-72
2023/12/09 11:11:07;;;;;;;41.10;19.60;;;;;;;1.48;80.21;99218.74;104762;1268;107634;-70
2023/12/09 11:13:44;;;;;;;35.90;17.70;;;;;;;1.49;80.47;99217.67;104560;1268;94839;-72
2023/12/09 11:16:23;;;;;;;35.40;17.70;;;;;;;1.51;80.42;99218.49;104460;1269;309483;-73